Time;durP1;ratioP1;P1;durP2;ratioP2;P2;SDS_P1;SDS_P2;PMS_P1;PMS_P2;Temp;Humidity;BMP_temperature;BMP_pressure;BME280_temperature;BME280_humidity;BME280_pressure;Samples;Min_cycle;Max_cycle;Signal;HPM_P1;HPM_P2
2023/10/20 00:02:27;;;;;;;7.10;4.30;;;;;;;;;;6229214;23;20016;-79
2023/10/20 00:04:58;;;;;;;7.63;4.55;;;;;;;;;;6255636;23;20011;-82
2023/10/20 00:07:30;;;;;;;9.20;4.70;;;;;;;;;;6246059;23;20015;-79
2023/10/20 00:10:01;;;;;;;8.75;4.43;;;;;;;;;;6230117;23;20004;-81
2023/10/20 00:12:31;;;;;;;10.43;4.38;;;;;;;;;;6248292;23;20330;-79
2023/10/20 00:15:01;;;;;;;6.80;4.22;;;;;;;;;;6255417;23;20012;-82
2023/10/20 00:17:31;;;;;;;11.75;4.97;;;;;;;;;;6257572;23;20009;-80
2023/10/20 00:20:02;;;;;;;8.05;4.57;;;;;;;;;;6224031;23;20469;-80
2023/10/20 00:22:32;;;;;;;7.78;4.45;;;;;;;;;;6246424;23;20023;-81
2023/10/20 00:25:03;;;;;;;8.48;4.90;;;;;;;;;;6255854;23;20004;-79
2023/10/20 00:27:34;;;;;;;8.93;4.47;;;;;;;;;;6216679;23;20015;-79
2023/10/20 00:30:07;;;;;;;9.02;4.80;;;;;;;;;;6218457;23;20023;-82
2023/10/20 00:32:41;;;;;;;9.50;4.78;;;;;;;;;;6193480;23;20336;-83
2023/10/20 00:35:13;;;;;;;9.13;5.03;;;;;;;;;;6255349;23;20319;-80
2023/10/20 00:37:43;;;;;;;11.15;5.15;;;;;;;;;;6255156;23;20008;-80
2023/10/20 00:40:13;;;;;;;9.60;5.22;;;;;;;;;;6216631;23;20023;-80
2023/10/20 00:42:43;;;;;;;10.77;5.38;;;;;;;;;;6245008;23;20012;-81
2023/10/20 00:45:14;;;;;;;12.07;5.72;;;;;;;;;;6245330;23;20012;-81
2023/10/20 00:47:45;;;;;;;12.50;6.28;;;;;;;;;;6244585;23;20327;-82
2023/10/20 00:50:16;;;;;;;11.63;6.13;;;;;;;;;;6218643;23;20438;-80
2023/10/20 00:52:50;;;;;;;11.85;5.53;;;;;;;;;;6254546;23;20012;-80
2023/10/20 00:55:34;;;;;;;15.23;5.93;;;;;;;;;;6254493;23;20035;-83
2023/10/20 00:58:37;;;;;;;10.43;5.47;;;;;;;;;;6234247;23;20451;-84
2023/10/20 01:01:31;;;;;;;10.75;5.63;;;;;;;;;;6146584;23;20023;-80
2023/10/20 01:04:02;;;;;;;13.52;5.65;;;;;;;;;;6256258;23;20315;-83
2023/10/20 01:06:58;;;;;;;10.60;5.57;;;;;;;;;;6182008;23;20025;-80
2023/10/20 01:09:31;;;;;;;10.85;5.53;;;;;;;;;;6152437;23;20018;-81
2023/10/20 01:12:03;;;;;;;12.32;5.78;;;;;;;;;;6152921;23;20010;-79
2023/10/20 01:14:39;;;;;;;10.93;6.45;;;;;;;;;;6158046;23;20017;-80
2023/10/20 01:17:12;;;;;;;11.57;6.88;;;;;;;;;;6127573;23;20053;-80
2023/10/20 01:20:20;;;;;;;13.63;7.03;;;;;;;;;;6162816;23;20024;-83
2023/10/20 01:23:40;;;;;;;13.18;6.45;;;;;;;;;;6152645;23;20017;-80
2023/10/20 01:26:21;;;;;;;14.05;6.53;;;;;;;;;;6153092;23;20175;-81
2023/10/20 01:29:53;;;;;;;14.93;6.97;;;;;;;;;;6135511;23;20013;-79
2023/10/20 01:36:48;;;;;;;13.05;5.82;;;;;;;;;;6165788;23;20017;-79
2023/10/20 01:43:05;;;;;;;8.43;4.90;;;;;;;;;;6155713;23;20052;-80
2023/10/20 02:01:42;;;;;;;15.30;7.88;;;;;;;;;;6244349;22;20046;-78
2023/10/20 02:04:37;;;;;;;15.93;8.13;;;;;;;;;;6219436;23;20008;-79
2023/10/20 02:07:09;;;;;;;14.05;7.15;;;;;;;;;;6218089;23;20019;-79
2023/10/20 02:10:06;;;;;;;15.23;8.13;;;;;;;;;;6244893;23;20431;-78
2023/10/20 02:24:53;;;;;;;19.08;9.27;;;;;;;;;;6157288;23;20020;-79
2023/10/20 02:27:57;;;;;;;24.25;9.90;;;;;;;;;;6182372;23;20013;-79
2023/10/20 02:30:34;;;;;;;22.73;9.77;;;;;;;;;;6192854;23;20009;-80
2023/10/20 02:33:29;;;;;;;22.80;9.90;;;;;;;;;;6188517;23;20013;-78
2023/10/20 02:36:42;;;;;;;32.10;10.15;;;;;;;;;;6151516;23;20013;-80
2023/10/20 02:39:13;;;;;;;19.50;9.63;;;;;;;;;;6186141;23;20031;-80
2023/10/20 02:45:25;;;;;;;22.48;10.68;;;;;;;;;;6245486;23;20035;-80
2023/10/20 02:48:10;;;;;;;23.13;10.52;;;;;;;;;;6123449;23;20021;-79
2023/10/20 02:50:40;;;;;;;24.35;11.10;;;;;;;;;;6100059;23;20435;-80
2023/10/20 02:53:30;;;;;;;26.63;10.63;;;;;;;;;;6107512;23;20025;-79
2023/10/20 02:56:09;;;;;;;22.52;10.50;;;;;;;;;;6098560;23;20330;-79
2023/10/20 02:58:43;;;;;;;22.17;9.85;;;;;;;;;;6133259;23;20010;-79
2023/10/20 03:01:21;;;;;;;19.42;8.90;;;;;;;;;;6146999;23;20017;-79
2023/10/20 03:03:53;;;;;;;21.27;10.10;;;;;;;;;;6099384;23;20040;-81
2023/10/20 03:06:35;;;;;;;20.92;9.93;;;;;;;;;;6147597;23;20024;-79
2023/10/20 03:09:08;;;;;;;20.08;9.70;;;;;;;;;;6119695;23;20014;-80
2023/10/20 03:11:38;;;;;;;21.80;8.77;;;;;;;;;;6146681;23;20014;-79
2023/10/20 03:14:09;;;;;;;24.55;9.68;;;;;;;;;;6099338;23;20021;-80
2023/10/20 03:16:45;;;;;;;20.80;9.55;;;;;;;;;;6124622;23;20018;-79
2023/10/20 03:19:17;;;;;;;19.45;8.50;;;;;;;;;;6075252;23;20036;-78
2023/10/20 03:21:48;;;;;;;22.30;9.38;;;;;;;;;;6123622;23;20010;-80
2023/10/20 03:24:19;;;;;;;21.08;9.38;;;;;;;;;;6124090;23;20021;-77
2023/10/20 03:26:49;;;;;;;21.70;9.90;;;;;;;;;;6241652;23;20012;-79
2023/10/20 03:29:22;;;;;;;20.70;9.18;;;;;;;;;;6230609;23;20012;-80
2023/10/20 03:31:54;;;;;;;23.10;9.75;;;;;;;;;;6218268;23;20019;-78
2023/10/20 03:34:25;;;;;;;;;;;;;;;;;;6218871;23;20008;-78
2023/10/20 03:36:56;;;;;;;20.70;8.93;;;;;;;;;;6231236;23;20214;-78
2023/10/20 03:39:32;;;;;;;17.98;7.40;;;;;;;;;;6218005;23;20023;-78
2023/10/20 03:42:10;;;;;;;15.07;7.00;;;;;;;;;;6219641;23;20023;-78
2023/10/20 03:44:43;;;;;;;13.95;7.22;;;;;;;;;;6193878;23;20019;-77
2023/10/20 03:47:17;;;;;;;17.25;6.70;;;;;;;;;;6194063;23;20431;-78
2023/10/20 03:49:52;;;;;;;12.77;5.88;;;;;;;;;;6218653;23;20016;-79
2023/10/20 03:52:24;;;;;;;14.27;5.22;;;;;;;;;;6218171;23;20015;-80
2023/10/20 03:54:56;;;;;;;10.70;5.03;;;;;;;;;;6193825;23;20343;-78
2023/10/20 03:57:26;;;;;;;9.85;4.93;;;;;;;;;;6218537;23;20020;-77
2023/10/20 03:59:56;;;;;;;13.65;5.10;;;;;;;;;;6245657;23;20015;-79
2023/10/20 04:02:28;;;;;;;8.23;3.92;;;;;;;;;;6247640;23;20433;-77
2023/10/20 04:05:02;;;;;;;10.60;3.88;;;;;;;;;;6215663;23;20008;-79
2023/10/20 04:07:59;;;;;;;9.80;4.22;;;;;;;;;;6217765;23;20060;-80
2023/10/20 04:11:09;;;;;;;10.88;3.10;;;;;;;;;;6227665;23;20015;-79
2023/10/20 04:14:23;;;;;;;5.45;2.47;;;;;;;;;;6217560;23;20012;-78
2023/10/20 04:16:54;;;;;;;5.55;2.40;;;;;;;;;;6157259;23;20521;-80
2023/10/20 04:19:25;;;;;;;6.50;2.83;;;;;;;;;;6174685;23;20016;-79
2023/10/20 04:21:55;;;;;;;9.23;2.35;;;;;;;;;;6218217;23;20327;-79
2023/10/20 04:24:28;;;;;;;5.25;1.85;;;;;;;;;;6256106;23;20004;-79
2023/10/20 04:27:00;;;;;;;4.82;1.80;;;;;;;;;;6255995;23;20008;-78
2023/10/20 04:29:35;;;;;;;4.95;2.17;;;;;;;;;;6255762;23;20376;-81
2023/10/20 04:43:37;;;;;;;4.45;2.00;;;;;;;;;;6247752;23;20318;-78
2023/10/20 05:05:43;;;;;;;6.25;2.47;;;;;;;;;;6258371;23;20008;-78
2023/10/20 05:10:45;;;;;;;4.65;1.90;;;;;;;;;;6248072;23;20031;-78
2023/10/20 05:13:16;;;;;;;5.03;2.10;;;;;;;;;;6257268;23;20061;-78
2023/10/20 05:15:47;;;;;;;9.98;2.30;;;;;;;;;;6231127;23;20064;-80
2023/10/20 05:18:18;;;;;;;5.07;2.33;;;;;;;;;;6258447;23;20015;-80
2023/10/20 05:20:47;;;;;;;4.75;2.40;;;;;;;;;;6247047;23;20339;-80
2023/10/20 05:23:17;;;;;;;4.53;1.90;;;;;;;;;;6247224;23;20431;-79
2023/10/20 05:25:49;;;;;;;4.47;2.10;;;;;;;;;;6257309;23;20008;-81
2023/10/20 05:28:20;;;;;;;5.13;1.65;;;;;;;;;;6257069;23;20015;-81
2023/10/20 05:30:50;;;;;;;6.35;1.92;;;;;;;;;;6232340;23;20005;-82
2023/10/20 05:33:21;;;;;;;3.90;2.10;;;;;;;;;;6247698;23;20015;-81
2023/10/20 05:35:51;;;;;;;5.03;2.30;;;;;;;;;;6247931;23;20008;-84
2023/10/20 05:38:21;;;;;;;3.78;1.52;;;;;;;;;;6248066;23;20004;-80
2023/10/20 05:41:01;;;;;;;3.88;2.03;;;;;;;;;;6248671;23;20015;-77
2023/10/20 05:43:31;;;;;;;4.28;2.22;;;;;;;;;;6270327;23;20012;-80
2023/10/20 05:46:02;;;;;;;3.90;1.83;;;;;;;;;;6261948;23;20014;-83
2023/10/20 05:48:32;;;;;;;4.45;2.20;;;;;;;;;;6261940;23;20011;-80
2023/10/20 05:51:03;;;;;;;7.43;2.20;;;;;;;;;;6248595;23;20311;-81
2023/10/20 05:53:36;;;;;;;4.55;2.47;;;;;;;;;;6257863;23;20180;-83
2023/10/20 05:56:06;;;;;;;5.68;2.65;;;;;;;;;;6220268;23;20015;-81
2023/10/20 05:58:40;;;;;;;4.50;2.10;;;;;;;;;;6231757;23;20011;-79
2023/10/20 06:01:10;;;;;;;4.70;2.20;;;;;;;;;;6247011;23;20035;-82
2023/10/20 06:03:41;;;;;;;3.60;1.38;;;;;;;;;;6246987;23;20004;-79
2023/10/20 06:06:11;;;;;;;4.78;1.65;;;;;;;;;;6247423;23;20019;-80
2023/10/20 06:08:41;;;;;;;4.43;2.08;;;;;;;;;;6220577;23;20032;-80
2023/10/20 06:11:12;;;;;;;5.85;1.50;;;;;;;;;;6257424;23;20431;-81
2023/10/20 06:13:42;;;;;;;7.57;2.10;;;;;;;;;;6247020;23;20035;-81
2023/10/20 06:16:12;;;;;;;5.72;1.90;;;;;;;;;;6246902;23;20012;-79
2023/10/20 06:18:44;;;;;;;4.95;2.15;;;;;;;;;;6247235;23;20019;-80
2023/10/20 06:21:19;;;;;;;4.80;1.33;;;;;;;;;;6219812;23;20432;-80
2023/10/20 06:23:50;;;;;;;3.95;1.80;;;;;;;;;;6231561;23;20019;-79
2023/10/20 06:26:22;;;;;;;4.03;1.80;;;;;;;;;;6257960;23;20295;-80
2023/10/20 06:28:52;;;;;;;3.38;2.00;;;;;;;;;;6247442;23;20027;-82
2023/10/20 06:34:00;;;;;;;2.08;0.88;;;;;;;;;;6247273;23;20008;-82
2023/10/20 06:36:32;;;;;;;3.38;1.70;;;;;;;;;;6256717;23;20008;-83
2023/10/20 06:39:03;;;;;;;4.70;1.60;;;;;;;;;;6230179;23;20008;-84
2023/10/20 06:41:34;;;;;;;5.60;1.80;;;;;;;;;;6257579;23;20011;-82
2023/10/20 06:44:05;;;;;;;5.68;2.00;;;;;;;;;;6257217;23;20008;-80
2023/10/20 06:46:35;;;;;;;5.00;1.83;;;;;;;;;;6246809;23;20330;-81
2023/10/20 06:49:07;;;;;;;3.97;1.80;;;;;;;;;;6247143;23;20020;-83
2023/10/20 06:51:37;;;;;;;3.78;1.80;;;;;;;;;;6256870;23;20012;-82
2023/10/20 06:54:07;;;;;;;6.00;2.45;;;;;;;;;;6218827;23;20020;-81
2023/10/20 06:56:37;;;;;;;4.50;1.90;;;;;;;;;;6246201;23;20431;-80
2023/10/20 06:59:09;;;;;;;5.82;2.10;;;;;;;;;;6247469;23;20407;-82
2023/10/20 07:01:43;;;;;;;4.63;2.38;;;;;;;;;;6218526;23;20449;-84
2023/10/20 07:04:14;;;;;;;6.32;2.25;;;;;;;;;;6287373;22;20430;-80
2023/10/20 07:06:44;;;;;;;8.13;2.63;;;;;;;;;;6277523;22;20011;-83
2023/10/20 07:09:14;;;;;;;4.20;2.20;;;;;;;;;;6249021;22;20011;-83
2023/10/20 07:11:44;;;;;;;6.40;2.40;;;;;;;;;;6248216;22;20016;-80
2023/10/20 07:14:15;;;;;;;5.25;1.95;;;;;;;;;;6277610;22;20415;-83
2023/10/20 07:16:46;;;;;;;6.90;1.83;;;;;;;;;;6287170;22;20038;-82
2023/10/20 07:19:16;;;;;;;6.50;1.88;;;;;;;;;;6276445;22;20014;-84
2023/10/20 07:21:46;;;;;;;4.53;1.95;;;;;;;;;;6277362;22;20008;-82
2023/10/20 07:24:16;;;;;;;6.45;1.90;;;;;;;;;;6250019;22;20015;-84
2023/10/20 07:26:46;;;;;;;6.00;1.88;;;;;;;;;;6276323;22;20330;-84
2023/10/20 07:29:17;;;;;;;4.38;2.00;;;;;;;;;;6276720;22;20339;-84
2023/10/20 07:31:47;;;;;;;10.10;1.95;;;;;;;;;;6287939;22;20008;-83
2023/10/20 07:34:18;;;;;;;5.10;2.00;;;;;;;;;;6287280;22;20319;-82
2023/10/20 07:36:48;;;;;;;3.95;1.88;;;;;;;;;;6276835;22;20035;-84
2023/10/20 07:39:18;;;;;;;5.57;1.60;;;;;;;;;;6248439;22;20014;-84
2023/10/20 07:41:48;;;;;;;6.30;2.25;;;;;;;;;;6277297;22;20014;-83
2023/10/20 07:44:19;;;;;;;6.75;2.00;;;;;;;;;;6224622;22;20026;-82
2023/10/20 07:46:49;;;;;;;6.18;2.03;;;;;;;;;;6248757;22;20015;-83
2023/10/20 07:49:19;;;;;;;6.05;2.03;;;;;;;;;;6276501;22;20012;-85
2023/10/20 07:51:49;;;;;;;11.35;2.25;;;;;;;;;;6249722;22;20023;-82
2023/10/20 07:54:20;;;;;;;7.15;2.03;;;;;;;;;;6224631;22;20016;-83
2023/10/20 07:56:50;;;;;;;5.10;1.80;;;;;;;;;;6277019;22;20015;-82
2023/10/20 07:59:20;;;;;;;3.90;1.70;;;;;;;;;;6248965;22;20011;-83
2023/10/20 08:01:50;;;;;;;4.53;2.03;;;;;;;;;;6276740;22;20020;-84
2023/10/20 08:04:20;;;;;;;6.30;1.80;;;;;;;;;;6249803;22;20022;-82
2023/10/20 08:06:51;;;;;;;6.75;2.50;;;;;;;;;;6249215;22;20023;-83
2023/10/20 08:09:21;;;;;;;5.72;2.13;;;;;;;;;;6275932;22;20330;-82
2023/10/20 08:11:51;;;;;;;5.50;2.50;;;;;;;;;;6276830;22;20007;-82
2023/10/20 08:14:21;;;;;;;4.45;2.00;;;;;;;;;;6276128;22;20007;-82
2023/10/20 08:16:51;;;;;;;8.10;2.40;;;;;;;;;;6275948;22;20008;-83
2023/10/20 08:19:23;;;;;;;6.55;2.05;;;;;;;;;;6261207;22;20018;-82
2023/10/20 08:21:56;;;;;;;4.85;1.98;;;;;;;;;;6276457;22;20035;-83
2023/10/20 08:24:26;;;;;;;7.15;1.95;;;;;;;;;;6275140;22;20014;-82
2023/10/20 08:26:58;;;;;;;5.70;2.35;;;;;;;;;;6225305;22;20313;-83
2023/10/20 08:29:27;;;;;;;6.55;1.98;;;;;;;;;;6248687;22;20012;-82
2023/10/20 08:31:58;;;;;;;5.63;2.60;;;;;;;;;;6276180;22;20022;-82
2023/10/20 08:34:30;;;;;;;5.78;2.72;;;;;;;;;;6248445;22;20464;-83
2023/10/20 08:37:02;;;;;;;4.80;2.15;;;;;;;;;;6286464;22;20004;-83
2023/10/20 08:39:34;;;;;;;8.43;2.30;;;;;;;;;;6286300;22;20026;-82
2023/10/20 08:42:21;;;;;;;6.03;2.28;;;;;;;;;;6286506;22;20027;-83
2023/10/20 08:44:52;;;;;;;6.68;2.55;;;;;;;;;;6286717;22;20008;-82
2023/10/20 08:47:23;;;;;;;8.75;2.67;;;;;;;;;;6276049;22;20015;-82
2023/10/20 08:49:55;;;;;;;6.93;2.20;;;;;;;;;;6286787;22;20007;-83
2023/10/20 08:52:25;;;;;;;5.72;2.28;;;;;;;;;;6275304;22;20438;-84
2023/10/20 08:54:57;;;;;;;6.03;2.55;;;;;;;;;;6287035;22;20008;-82
2023/10/20 08:57:29;;;;;;;5.53;2.25;;;;;;;;;;6248927;22;20026;-82
2023/10/20 08:59:59;;;;;;;4.95;2.47;;;;;;;;;;6260386;22;20008;-82
2023/10/20 09:02:39;;;;;;;10.63;2.53;;;;;;;;;;6250655;22;20004;-82
2023/10/20 09:05:09;;;;;;;8.07;2.55;;;;;;;;;;6287129;22;20007;-84
2023/10/20 09:07:49;;;;;;;11.32;2.47;;;;;;;;;;6276551;22;20434;-83
2023/10/20 09:10:19;;;;;;;8.35;2.10;;;;;;;;;;6286446;22;20439;-83
2023/10/20 09:12:50;;;;;;;8.05;2.53;;;;;;;;;;6224565;22;20012;-83
2023/10/20 09:15:21;;;;;;;5.20;2.08;;;;;;;;;;6248673;22;20022;-83
2023/10/20 09:17:55;;;;;;;8.32;2.45;;;;;;;;;;6286975;22;20012;-83
2023/10/20 09:20:28;;;;;;;5.55;2.70;;;;;;;;;;6285649;22;20429;-83
2023/10/20 09:22:59;;;;;;;8.07;2.15;;;;;;;;;;6286953;22;20358;-83
2023/10/20 09:25:29;;;;;;;3.70;1.98;;;;;;;;;;6277477;22;20019;-84
2023/10/20 09:28:00;;;;;;;6.47;2.65;;;;;;;;;;6275848;22;20026;-83
2023/10/20 09:30:31;;;;;;;6.32;2.50;;;;;;;;;;6287687;22;20004;-81
2023/10/20 09:33:03;;;;;;;;;;;;;;;;;;6250791;22;20008;-84
2023/10/20 09:35:39;;;;;;;4.57;2.03;;;;;;;;;;6226017;22;19911;-84
2023/10/20 09:38:11;;;;;;;5.00;1.77;;;;;;;;;;6287702;22;20020;-83
2023/10/20 09:40:45;;;;;;;4.60;2.28;;;;;;;;;;6288612;22;20012;-84
2023/10/20 09:43:26;;;;;;;5.55;2.13;;;;;;;;;;6250216;22;20007;-83
2023/10/20 09:46:17;;;;;;;6.43;2.30;;;;;;;;;;6288650;22;20007;-83
2023/10/20 09:48:52;;;;;;;6.40;2.13;;;;;;;;;;6277858;22;20007;-82
2023/10/20 09:51:23;;;;;;;7.05;2.28;;;;;;;;;;6261085;22;20004;-83
2023/10/20 09:53:54;;;;;;;5.20;2.10;;;;;;;;;;6288240;22;20008;-83
2023/10/20 09:56:27;;;;;;;7.28;2.35;;;;;;;;;;6250416;22;20007;-83
2023/10/20 09:59:00;;;;;;;7.55;2.38;;;;;;;;;;6261087;22;20007;-83
2023/10/20 10:01:32;;;;;;;4.03;2.13;;;;;;;;;;6250265;22;20012;-83
2023/10/20 10:04:08;;;;;;;8.23;2.45;;;;;;;;;;6277649;22;20008;-83
2023/10/20 10:06:39;;;;;;;4.72;2.00;;;;;;;;;;6288149;22;20011;-85
2023/10/20 10:09:11;;;;;;;8.38;2.60;;;;;;;;;;6249761;22;20395;-83
2023/10/20 10:11:42;;;;;;;10.40;2.13;;;;;;;;;;6277673;22;20012;-85
2023/10/20 10:14:21;;;;;;;6.00;2.20;;;;;;;;;;6249438;22;20127;-84
2023/10/20 10:21:39;;;;;;;5.70;2.95;;;;;;;;;;6256460;22;20024;-81
2023/10/20 10:24:18;;;;;;;8.93;2.70;;;;;;;;;;6188033;23;20327;-83
2023/10/20 10:27:55;;;;;;;5.75;2.90;;;;;;;;;;6199953;23;20478;-81
2023/10/20 10:31:38;;;;;;;12.32;2.80;;;;;;;;;;6097707;23;20013;-79
2023/10/20 10:45:27;;;;;;;7.40;3.40;;;;;;;;;;5925037;24;20238;-83
2023/10/20 10:48:08;;;;;;;5.03;2.00;;;;;;;;;;5956227;24;20020;-83
2023/10/20 10:50:43;;;;;;;6.40;1.80;;;;;;;;;;5955442;24;20429;-81
2023/10/20 10:53:18;;;;;;;4.75;2.13;;;;;;;;;;5933630;24;20017;-81
2023/10/20 10:55:49;;;;;;;4.63;1.65;;;;;;;;;;5957467;24;20016;-81
2023/10/20 10:58:19;;;;;;;4.30;1.83;;;;;;;;;;5990856;24;20355;-80
2023/10/20 11:00:50;;;;;;;3.35;1.92;;;;;;;;;;5991262;23;20004;-80
2023/10/20 11:03:22;;;;;;;6.80;2.15;;;;;;;;;;6044097;23;20032;-82
2023/10/20 11:05:54;;;;;;;3.65;1.95;;;;;;;;;;6017030;23;20018;-81
2023/10/20 11:08:29;;;;;;;4.40;1.70;;;;;;;;;;6046645;23;20016;-81
2023/10/20 11:13:59;;;;;;;4.18;2.03;;;;;;;;;;6096967;23;20010;-81
2023/10/20 11:16:45;;;;;;;2.97;1.50;;;;;;;;;;6123801;23;20075;-81
2023/10/20 11:20:05;;;;;;;3.42;1.55;;;;;;;;;;6119372;23;20437;-80
2023/10/20 11:23:14;;;;;;;5.63;2.05;;;;;;;;;;6166646;23;20491;-81
2023/10/20 11:26:29;;;;;;;5.20;2.58;;;;;;;;;;6062617;23;20007;-80
2023/10/20 11:29:25;;;;;;;4.55;2.30;;;;;;;;;;6043536;23;20019;-82
2023/10/20 11:33:20;;;;;;;4.00;2.20;;;;;;;;;;6071124;23;20026;-82
2023/10/20 11:37:02;;;;;;;6.78;2.15;;;;;;;;;;6025705;23;20015;-81
2023/10/20 11:47:26;;;;;;;3.35;1.75;;;;;;;;;;5922394;24;20017;-81
2023/10/20 11:49:57;;;;;;;4.80;1.83;;;;;;;;;;5927306;24;20062;-81
2023/10/20 11:52:27;;;;;;;4.88;1.90;;;;;;;;;;5961560;24;20455;-81
2023/10/20 11:54:57;;;;;;;4.03;1.80;;;;;;;;;;6010343;23;20022;-82
2023/10/20 11:57:26;;;;;;;3.67;1.80;;;;;;;;;;6077218;23;20446;-82
2023/10/20 11:59:56;;;;;;;9.95;2.00;;;;;;;;;;6093518;23;20018;-81
2023/10/20 12:02:27;;;;;;;5.57;2.00;;;;;;;;;;6101874;23;20022;-82
2023/10/20 12:04:57;;;;;;;5.13;1.83;;;;;;;;;;6128190;23;20013;-82
2023/10/20 12:07:28;;;;;;;5.68;1.77;;;;;;;;;;6152752;23;20014;-82
2023/10/20 12:09:57;;;;;;;4.43;2.22;;;;;;;;;;6150477;23;20077;-82
2023/10/20 12:12:28;;;;;;;3.75;1.95;;;;;;;;;;6147423;23;20060;-82
2023/10/20 12:15:00;;;;;;;4.32;2.15;;;;;;;;;;6161634;23;20105;-82
2023/10/20 12:17:34;;;;;;;4.53;1.88;;;;;;;;;;6161144;23;20452;-82
2023/10/20 12:20:05;;;;;;;5.00;2.50;;;;;;;;;;6151562;23;20014;-81
2023/10/20 12:22:34;;;;;;;5.18;2.05;;;;;;;;;;6151137;23;20030;-82
2023/10/20 12:25:05;;;;;;;9.23;4.68;;;;;;;;;;6184885;23;20043;-82
2023/10/20 12:27:35;;;;;;;5.85;3.10;;;;;;;;;;6243386;23;20012;-82
2023/10/20 12:30:06;;;;;;;6.57;2.80;;;;;;;;;;6243997;23;20039;-83
2023/10/20 12:32:37;;;;;;;6.30;2.03;;;;;;;;;;6244032;23;20394;-82
2023/10/20 12:35:07;;;;;;;7.07;3.55;;;;;;;;;;6217407;23;20016;-82
2023/10/20 12:37:38;;;;;;;3.75;1.75;;;;;;;;;;6216979;23;20016;-83
2023/10/20 12:40:08;;;;;;;8.05;2.13;;;;;;;;;;6215685;23;20020;-82
2023/10/20 12:42:40;;;;;;;5.25;1.77;;;;;;;;;;6243299;23;20013;-82
2023/10/20 12:45:10;;;;;;;6.03;2.13;;;;;;;;;;6216684;23;20027;-83
2023/10/20 12:47:40;;;;;;;3.33;1.83;;;;;;;;;;6191541;23;20439;-83
2023/10/20 12:50:11;;;;;;;3.65;2.35;;;;;;;;;;6243823;23;20447;-83
2023/10/20 12:52:41;;;;;;;3.92;1.80;;;;;;;;;;6253600;23;20323;-83
2023/10/20 12:55:11;;;;;;;5.47;2.00;;;;;;;;;;6191464;23;20020;-82
2023/10/20 12:57:49;;;;;;;5.72;2.08;;;;;;;;;;6211889;23;20456;-82
2023/10/20 13:00:21;;;;;;;2.85;1.63;;;;;;;;;;6244881;23;20012;-82
2023/10/20 13:02:55;;;;;;;6.15;2.13;;;;;;;;;;6218188;23;20448;-83
2023/10/20 13:05:26;;;;;;;5.53;2.15;;;;;;;;;;6228961;23;20012;-83
2023/10/20 13:07:56;;;;;;;3.70;1.75;;;;;;;;;;6245399;23;20418;-84
2023/10/20 13:10:26;;;;;;;3.97;1.77;;;;;;;;;;6245576;23;20019;-83
2023/10/20 13:12:57;;;;;;;5.88;1.95;;;;;;;;;;6255286;23;20023;-83
2023/10/20 13:15:28;;;;;;;4.72;1.90;;;;;;;;;;6244048;23;20027;-82
2023/10/20 13:17:59;;;;;;;4.38;1.50;;;;;;;;;;6253761;23;20442;-82
2023/10/20 13:20:29;;;;;;;3.45;1.88;;;;;;;;;;6244521;23;20008;-82
2023/10/20 13:23:00;;;;;;;3.63;1.73;;;;;;;;;;6246114;23;20469;-82
2023/10/20 13:25:31;;;;;;;;;;;;;;;;;;6173799;23;20226;-82
2023/10/20 13:28:03;;;;;;;3.30;1.55;;;;;;;;;;6182451;23;19912;-82
2023/10/20 13:30:34;;;;;;;5.35;1.70;;;;;;;;;;6186051;23;20013;-83
2023/10/20 13:33:04;;;;;;;4.85;2.05;;;;;;;;;;6182217;23;20021;-83
2023/10/20 13:35:37;;;;;;;4.70;1.80;;;;;;;;;;6191410;23;20060;-83
2023/10/20 13:38:37;;;;;;;2.95;1.65;;;;;;;;;;6156480;23;20313;-83
2023/10/20 13:41:44;;;;;;;4.45;2.00;;;;;;;;;;6156610;23;20016;-84
2023/10/20 13:47:54;;;;;;;4.40;1.95;;;;;;;;;;6156363;23;20516;-82
2023/10/20 13:50:49;;;;;;;3.67;2.03;;;;;;;;;;6187633;23;20076;-82
2023/10/20 13:53:35;;;;;;;4.45;1.80;;;;;;;;;;6181679;23;20009;-83
2023/10/20 13:56:06;;;;;;;4.35;1.83;;;;;;;;;;6189558;23;20476;-83
2023/10/20 13:58:52;;;;;;;5.47;1.67;;;;;;;;;;6149997;23;20659;-82
2023/10/20 14:01:37;;;;;;;3.05;1.58;;;;;;;;;;6092689;23;20377;-82
2023/10/20 14:04:26;;;;;;;2.70;1.52;;;;;;;;;;6102711;23;20045;-82
2023/10/20 14:06:57;;;;;;;3.42;1.75;;;;;;;;;;6125559;23;20018;-83
2023/10/20 14:16:41;;;;;;;3.72;1.55;;;;;;;;;;6011173;23;20371;-83
2023/10/20 14:19:57;;;;;;;3.25;1.90;;;;;;;;;;5982471;23;20012;-81
2023/10/20 14:22:27;;;;;;;3.13;1.63;;;;;;;;;;6004125;23;20012;-83
2023/10/20 14:24:59;;;;;;;5.18;1.60;;;;;;;;;;6015677;23;20332;-83
2023/10/20 14:32:16;;;;;;;;;;;;;;;;;;;;;
2023/10/20 14:35:19;;;;;;;3.00;1.48;;;;;;;;;;5901483;24;20030;-84
2023/10/20 14:38:28;;;;;;;2.85;1.70;;;;;;;;;;5850022;24;20026;-83
2023/10/20 14:41:08;;;;;;;3.38;1.60;;;;;;;;;;5879127;24;20021;-83
2023/10/20 14:43:42;;;;;;;4.32;1.90;;;;;;;;;;5934511;24;20036;-81
2023/10/20 14:46:13;;;;;;;4.18;1.90;;;;;;;;;;5964342;24;20039;-82
2023/10/20 14:48:43;;;;;;;4.88;1.80;;;;;;;;;;5964248;24;20012;-83
2023/10/20 14:51:17;;;;;;;5.28;1.88;;;;;;;;;;5978738;23;20057;-83
2023/10/20 14:53:48;;;;;;;3.47;1.83;;;;;;;;;;6067583;23;20461;-82
2023/10/20 14:56:19;;;;;;;4.45;1.60;;;;;;;;;;6070455;23;20015;-82
2023/10/20 14:58:49;;;;;;;4.30;1.85;;;;;;;;;;6065231;23;20019;-82
2023/10/20 15:01:19;;;;;;;3.90;1.55;;;;;;;;;;6062160;23;20019;-82
2023/10/20 15:03:49;;;;;;;5.63;1.90;;;;;;;;;;6060874;23;20327;-82
2023/10/20 15:06:19;;;;;;;3.30;1.58;;;;;;;;;;6063354;23;20334;-82
2023/10/20 15:09:37;;;;;;;2.88;1.70;;;;;;;;;;6082046;23;20425;-81
2023/10/20 15:12:08;;;;;;;3.45;1.90;;;;;;;;;;6122981;23;20115;-82
2023/10/20 15:14:38;;;;;;;4.00;2.35;;;;;;;;;;6111524;23;20020;-82
2023/10/20 15:17:08;;;;;;;4.80;2.08;;;;;;;;;;6212149;23;20016;-82
2023/10/20 15:19:38;;;;;;;4.03;1.75;;;;;;;;;;6215805;23;20019;-82
2023/10/20 15:22:08;;;;;;;4.20;1.85;;;;;;;;;;6244955;23;20012;-82
2023/10/20 15:24:38;;;;;;;4.50;1.98;;;;;;;;;;6218973;23;20338;-82
2023/10/20 15:27:09;;;;;;;4.13;1.90;;;;;;;;;;6217711;23;20039;-82
2023/10/20 15:29:38;;;;;;;3.40;1.75;;;;;;;;;;6215366;23;20284;-82
2023/10/20 15:32:10;;;;;;;4.47;1.85;;;;;;;;;;6244929;23;20019;-82
2023/10/20 15:34:40;;;;;;;6.75;1.85;;;;;;;;;;6236124;23;20012;-82
2023/10/20 15:37:11;;;;;;;3.13;2.08;;;;;;;;;;6255543;23;20008;-82
2023/10/20 15:39:41;;;;;;;2.90;1.67;;;;;;;;;;6216462;23;20332;-82
2023/10/20 15:42:22;;;;;;;3.38;1.85;;;;;;;;;;6218068;23;20008;-82
2023/10/20 15:44:53;;;;;;;5.32;2.22;;;;;;;;;;6219039;23;20012;-82
2023/10/20 15:47:28;;;;;;;3.40;1.65;;;;;;;;;;6217943;23;20335;-82
2023/10/20 15:49:58;;;;;;;4.20;1.88;;;;;;;;;;6216771;23;20319;-82
2023/10/20 15:52:29;;;;;;;3.30;1.58;;;;;;;;;;6245844;23;20019;-82
2023/10/20 15:55:03;;;;;;;3.97;2.17;;;;;;;;;;6246049;23;20012;-82
2023/10/20 15:57:37;;;;;;;5.97;1.95;;;;;;;;;;6255896;23;20004;-82
2023/10/20 16:00:09;;;;;;;5.38;1.70;;;;;;;;;;6256620;23;20015;-83
2023/10/20 16:02:40;;;;;;;3.13;1.35;;;;;;;;;;6231035;23;20004;-82
2023/10/20 16:05:11;;;;;;;2.80;1.77;;;;;;;;;;6246486;23;20016;-82
2023/10/20 16:07:41;;;;;;;4.03;2.20;;;;;;;;;;6244721;23;20004;-82
2023/10/20 16:10:11;;;;;;;3.90;2.00;;;;;;;;;;6219505;23;20075;-82
2023/10/20 16:12:41;;;;;;;4.10;2.92;;;;;;;;;;6245895;23;20012;-82
2023/10/20 16:15:12;;;;;;;4.07;1.83;;;;;;;;;;6246428;23;20035;-82
2023/10/20 16:17:44;;;;;;;4.97;2.28;;;;;;;;;;6256269;23;20008;-83
2023/10/20 16:20:17;;;;;;;4.18;2.00;;;;;;;;;;6242995;23;20012;-83
2023/10/20 16:22:49;;;;;;;3.53;2.05;;;;;;;;;;6220612;23;20288;-82
2023/10/20 16:25:20;;;;;;;6.05;1.95;;;;;;;;;;6245939;23;20012;-82
2023/10/20 16:27:51;;;;;;;3.72;1.95;;;;;;;;;;6193404;23;20012;-82
2023/10/20 16:30:21;;;;;;;4.18;2.00;;;;;;;;;;6245859;23;20008;-82
2023/10/20 16:32:51;;;;;;;3.65;2.20;;;;;;;;;;6247187;23;20005;-82
2023/10/20 16:35:21;;;;;;;3.40;1.90;;;;;;;;;;6247619;23;20004;-82
2023/10/20 16:37:54;;;;;;;3.72;2.10;;;;;;;;;;6219771;23;20300;-82
2023/10/20 16:40:24;;;;;;;3.90;2.28;;;;;;;;;;6221633;23;20008;-82
2023/10/20 16:42:54;;;;;;;5.60;2.03;;;;;;;;;;6221363;23;20016;-82
2023/10/20 16:45:24;;;;;;;3.05;1.60;;;;;;;;;;6247543;23;20016;-82
2023/10/20 16:55:24;;;;;;;3.03;1.73;;;;;;;;;;6247267;23;20012;-82
2023/10/20 16:57:55;;;;;;;3.67;1.73;;;;;;;;;;6247546;23;20012;-82
2023/10/20 17:00:24;;;;;;;3.47;1.85;;;;;;;;;;6248500;23;20012;-81
2023/10/20 17:07:34;;;;;;;3.60;1.85;;;;;;;;;;6146592;23;20357;-81
2023/10/20 17:10:44;;;;;;;4.65;1.55;;;;;;;;;;6081870;23;20022;-82
2023/10/20 17:13:14;;;;;;;3.20;1.33;;;;;;;;;;6125104;23;20017;-82
2023/10/20 17:15:44;;;;;;;3.58;1.95;;;;;;;;;;6101095;23;20022;-80
2023/10/20 17:18:14;;;;;;;3.40;1.45;;;;;;;;;;6125107;23;20018;-80
2023/10/20 17:20:45;;;;;;;6.43;1.92;;;;;;;;;;6100194;23;20435;-79
2023/10/20 17:23:14;;;;;;;2.25;1.45;;;;;;;;;;6101386;23;20025;-79
2023/10/20 17:25:47;;;;;;;3.30;1.73;;;;;;;;;;6125084;23;20018;-79
2023/10/20 17:28:18;;;;;;;3.63;1.90;;;;;;;;;;6135439;23;20539;-80
2023/10/20 17:30:57;;;;;;;2.17;1.30;;;;;;;;;;6146030;23;20024;-80
2023/10/20 17:33:28;;;;;;;2.40;1.33;;;;;;;;;;6109014;23;20018;-80
2023/10/20 17:36:06;;;;;;;3.90;1.55;;;;;;;;;;6135206;23;20380;-80
2023/10/20 17:38:37;;;;;;;2.67;1.50;;;;;;;;;;6139382;23;20140;-79
2023/10/20 17:41:08;;;;;;;2.63;1.35;;;;;;;;;;6127944;23;20017;-83
2023/10/20 17:43:38;;;;;;;2.90;1.35;;;;;;;;;;6136456;23;20519;-81